DEKT2: Red River, Dekalb, TX

Data processed at Fri Jan 05 2018 23:29


All information presented herein is the property of the government of the United States of America and may be revised or deleted at any time without prior notice.
Dissemination of this information without the expressed written consent of the Public Affairs Office, Tulsa District U.S. Army Corps of Engineers is strictly prohibited.
These data are gathered electronically and, as presented, have not undergone any form of quality control. These data are not guaranteed to be valid or correct.
Go to home page.
Go to station list.

Upstream stations:

Downstream station:
Previous Day
Next Day
Current Day
    
SHEF ID:       DEKT2     Red River near De Kalb, TX
STATION TYPE:  

               PRECIP     STAGE  STAGE(2)  RIV-FLOW  BAT-LOAD
                   in        ft        ft       cfs      volt
              Ccp-Rev   Ccp-Rev   Ccp-Rev   Ccp-Rev   Ccp-Rev
(US/Central)
01/03 00:00      0.00     11.00     17.21      5115     12.65
01/03 01:00      0.00     10.98     17.20      5075     12.65
01/03 02:00      0.00     10.95     17.19      5016     12.57
01/03 03:00      0.00     10.91     17.21      4938     12.57
01/03 04:00      0.00     10.89     17.20      4899     12.57
01/03 05:00      0.00     10.85     17.18      4822     12.57
01/03 06:00      0.00     10.81     17.20      4745     12.57
01/03 07:00      0.00     10.77     17.19      4668     12.49
01/03 08:00      0.00     10.73     17.18      4592     12.49
01/03 09:00      0.00     10.69     17.24      4517     12.65
01/03 10:00      0.00     10.65     17.24      4445     13.84
01/03 11:00      0.00     10.59     17.25      4341     14.16
01/03 12:00      0.00     10.53     17.23      4238     13.92
01/03 13:00      0.00     10.49     17.25      4170     13.92
01/03 14:00      0.00     10.42     17.26      4052     13.92
01/03 15:00      0.00     10.39     17.26      4002     13.92
01/03 16:00      0.00     10.34     17.24      3919     14.00
01/03 17:00      0.00     10.30     17.22      3853     13.53
01/03 18:00      0.00     10.29     17.24      3837     13.29
01/03 19:00      0.00     10.24     17.22      3755     12.89
01/03 20:00      0.00     10.23     17.23      3739     12.81
01/03 21:00      0.00     10.20     17.23      3691     12.73
01/03 22:00      0.00     10.17     17.21      3642     12.73
01/03 23:00      0.00     10.14     17.23      3594     12.73